createdAt,value
2023-02-25T00:01:36.854Z,97215.63
2023-02-25T00:04:03.991Z,97223.41
2023-02-25T00:06:30.460Z,97228.50
2023-02-25T00:08:57.213Z,97230.31
2023-02-25T00:11:27.486Z,97225.56
2023-02-25T00:13:56.818Z,97218.47
2023-02-25T00:16:27.552Z,97219.88
2023-02-25T00:18:58.175Z,97224.41
2023-02-25T00:21:29.577Z,97225.63
2023-02-25T00:24:00.117Z,97224.53
2023-02-25T00:26:31.006Z,97218.69
2023-02-25T00:28:57.770Z,97219.75
2023-02-25T00:31:28.635Z,97210.16
2023-02-25T00:33:55.820Z,97212.41
2023-02-25T00:36:25.519Z,97201.53
2023-02-25T00:39:01.204Z,97207.44
2023-02-25T00:41:30.210Z,97207.81
2023-02-25T00:44:02.233Z,97222.75
2023-02-25T00:46:31.043Z,97211.19
2023-02-25T00:48:58.964Z,97221.25
2023-02-25T00:51:28.513Z,97211.59
2023-02-25T00:53:56.847Z,97201.97
2023-02-25T00:56:26.540Z,97208.59
2023-02-25T00:58:56.481Z,97206.78
2023-02-25T01:01:29.002Z,97213.13
2023-02-25T01:04:00.153Z,97199.63
2023-02-25T01:06:28.737Z,97211.16
2023-02-25T01:08:56.613Z,97213.81
2023-02-25T01:11:29.446Z,97189.97
2023-02-25T01:14:00.944Z,97196.94
2023-02-25T01:16:32.395Z,97203.84
2023-02-25T01:19:01.709Z,97205.09
2023-02-25T01:21:31.958Z,97207.88
2023-02-25T01:24:05.300Z,97199.97
2023-02-25T01:26:35.003Z,97203.97
2023-02-25T01:29:01.872Z,97198.44
2023-02-25T01:31:31.854Z,97178.31
2023-02-25T01:34:03.659Z,97190.59
2023-02-25T01:36:31.704Z,97196.94
2023-02-25T01:39:02.441Z,97184.81
2023-02-25T01:41:30.813Z,97196.81
2023-02-25T01:44:08.365Z,97187.75
2023-02-25T01:46:36.473Z,97188.03
2023-02-25T01:49:07.412Z,97183.50
2023-02-25T01:51:35.835Z,97181.72
2023-02-25T01:54:04.420Z,97179.78
2023-02-25T01:56:31.841Z,97192.47
2023-02-25T01:59:02.273Z,97182.25
2023-02-25T02:01:35.379Z,97178.81
2023-02-25T02:04:04.484Z,97175.94
2023-02-25T02:06:37.538Z,97179.06
2023-02-25T02:09:07.233Z,97175.31
2023-02-25T02:11:34.216Z,97159.88
2023-02-25T02:14:06.143Z,97154.19
2023-02-25T02:16:44.644Z,97170.72
2023-02-25T02:19:36.212Z,97158.81
2023-02-25T02:22:24.132Z,97159.19
2023-02-25T02:25:17.745Z,97143.69
2023-02-25T02:28:11.871Z,97148.06
2023-02-25T02:31:17.532Z,97153.16
2023-02-25T02:34:18.691Z,97144.66
2023-02-25T02:36:51.535Z,97145.28
2023-02-25T02:39:33.984Z,97134.00
2023-02-25T02:42:21.712Z,97125.22
2023-02-25T02:44:58.742Z,97131.75
2023-02-25T02:47:32.181Z,97138.81
2023-02-25T02:50:10.001Z,97144.81
2023-02-25T02:52:51.632Z,97130.97
2023-02-25T02:55:34.128Z,97150.38
2023-02-25T02:58:06.912Z,97145.38
2023-02-25T03:00:39.844Z,97133.88
2023-02-25T03:03:14.617Z,97139.56
2023-02-25T03:05:45.447Z,97137.00
2023-02-25T03:08:17.336Z,97127.13
2023-02-25T03:10:44.720Z,97133.78
2023-02-25T03:13:12.019Z,97130.03
2023-02-25T03:15:41.224Z,97132.00
2023-02-25T03:18:30.953Z,97128.38
2023-02-25T03:20:58.870Z,97115.66
2023-02-25T03:23:32.781Z,97117.63
2023-02-25T03:26:23.133Z,97123.53
2023-02-25T03:28:50.296Z,97125.03
2023-02-25T03:31:25.463Z,97116.22
2023-02-25T03:33:56.659Z,97112.31
2023-02-25T03:36:41.969Z,97121.47
2023-02-25T03:39:20.567Z,97116.22
2023-02-25T03:41:52.160Z,97122.41
2023-02-25T03:44:24.947Z,97126.41
2023-02-25T03:46:53.698Z,97130.50
2023-02-25T03:49:26.294Z,97124.81
2023-02-25T03:51:56.475Z,97128.50
2023-02-25T03:54:23.005Z,97126.84
2023-02-25T03:56:51.411Z,97126.25
2023-02-25T03:59:19.187Z,97129.03
2023-02-25T04:01:50.206Z,97123.16
2023-02-25T04:04:16.793Z,97122.66
2023-02-25T04:06:43.305Z,97112.44
2023-02-25T04:09:09.822Z,97122.09
2023-02-25T04:11:39.228Z,97094.94
2023-02-25T04:14:07.315Z,97109.91
2023-02-25T04:16:33.897Z,97101.19
2023-02-25T04:19:00.382Z,97109.69
2023-02-25T04:21:37.576Z,97111.31
2023-02-25T04:24:09.223Z,97104.56
2023-02-25T04:26:38.434Z,97100.03
2023-02-25T04:29:05.003Z,97105.25
2023-02-25T04:31:31.982Z,97101.06
2023-02-25T04:33:58.559Z,97104.34
2023-02-25T04:36:29.913Z,97104.97
2023-02-25T04:38:57.820Z,97093.22
2023-02-25T04:41:24.934Z,97099.41
2023-02-25T04:43:51.378Z,97093.88
2023-02-25T04:46:17.926Z,97086.59
2023-02-25T04:48:44.460Z,97091.31
2023-02-25T04:51:10.966Z,97089.44
2023-02-25T04:53:38.443Z,97083.78
2023-02-25T04:56:08.552Z,97078.00
2023-02-25T04:58:36.404Z,97074.25
2023-02-25T05:01:05.589Z,97083.47
2023-02-25T05:03:33.558Z,97090.66
2023-02-25T05:06:00.390Z,97075.44
2023-02-25T05:08:27.627Z,97076.06
2023-02-25T05:10:54.256Z,97082.78
2023-02-25T05:13:21.311Z,97082.25
2023-02-25T05:15:48.257Z,97084.88
2023-02-25T05:18:14.917Z,97090.81
2023-02-25T05:20:43.237Z,97090.13
2023-02-25T05:23:13.579Z,97091.41
2023-02-25T05:25:43.557Z,97089.53
2023-02-25T05:28:13.153Z,97081.97
2023-02-25T05:30:43.415Z,97075.44
2023-02-25T05:33:14.212Z,97088.88
2023-02-25T05:35:44.904Z,97079.41
2023-02-25T05:38:14.464Z,97071.66
2023-02-25T05:40:44.373Z,97061.53
2023-02-25T05:43:13.791Z,97082.56
2023-02-25T05:45:56.457Z,97079.22
2023-02-25T05:48:23.723Z,97091.88
2023-02-25T05:50:51.396Z,97085.13
2023-02-25T05:53:20.539Z,97082.53
2023-02-25T05:55:47.057Z,97067.97
2023-02-25T05:58:13.564Z,97077.31
2023-02-25T06:00:41.825Z,97083.91
2023-02-25T06:03:08.343Z,97084.09
2023-02-25T06:05:34.860Z,97069.66
2023-02-25T06:08:01.368Z,97078.28
2023-02-25T06:10:27.850Z,97072.59
2023-02-25T06:12:54.367Z,97072.00
2023-02-25T06:15:20.818Z,97079.78
2023-02-25T06:17:47.298Z,97081.69
2023-02-25T06:20:16.550Z,97071.72
2023-02-25T06:22:43.565Z,97067.06
2023-02-25T06:25:13.728Z,97077.63
2023-02-25T06:27:45.491Z,97064.91
2023-02-25T06:30:13.010Z,97073.13
2023-02-25T06:32:43.637Z,97080.66
2023-02-25T06:35:14.781Z,97081.47
2023-02-25T06:37:44.524Z,97073.84
2023-02-25T06:40:15.228Z,97077.59
2023-02-25T06:42:42.084Z,97078.56
2023-02-25T06:45:11.592Z,97078.72
2023-02-25T06:47:38.120Z,97056.50
2023-02-25T06:50:05.469Z,97084.78
2023-02-25T06:52:32.041Z,97074.31
2023-02-25T06:54:58.472Z,97083.94
2023-02-25T06:57:25.147Z,97092.00
2023-02-25T06:59:53.313Z,97089.50
2023-02-25T07:02:20.186Z,97097.47
2023-02-25T07:04:46.706Z,97100.75
2023-02-25T07:07:13.194Z,97105.97
2023-02-25T07:09:39.882Z,97102.75
2023-02-25T07:12:07.570Z,97100.94
2023-02-25T07:14:34.068Z,97098.25
2023-02-25T07:17:00.635Z,97105.88
2023-02-25T07:19:27.159Z,97086.94
2023-02-25T07:21:55.213Z,97101.91
2023-02-25T07:24:23.437Z,97101.81
2023-02-25T07:26:50.033Z,97120.94
2023-02-25T07:29:17.002Z,97093.34
2023-02-25T07:31:45.723Z,97108.16
2023-02-25T07:34:12.812Z,97108.63
2023-02-25T07:36:43.653Z,97105.84
2023-02-25T07:39:15.614Z,97103.75
2023-02-25T07:41:42.655Z,97083.06
2023-02-25T07:44:10.747Z,97084.03
2023-02-25T07:46:37.697Z,97077.81
2023-02-25T07:49:04.683Z,97084.19
2023-02-25T07:51:31.151Z,97090.75
2023-02-25T07:53:58.318Z,97094.69
2023-02-25T07:56:28.562Z,97089.00
2023-02-25T07:58:55.658Z,97094.97
2023-02-25T08:01:26.375Z,97100.28
2023-02-25T08:03:55.224Z,97103.97
2023-02-25T08:06:22.081Z,97106.44
2023-02-25T08:08:52.303Z,97103.66
2023-02-25T08:11:20.660Z,97107.13
2023-02-25T08:13:47.934Z,97096.97
2023-02-25T08:16:17.039Z,97069.69
2023-02-25T08:18:43.878Z,97095.72
2023-02-25T08:21:12.872Z,97084.56
2023-02-25T08:23:45.614Z,97062.50
2023-02-25T08:26:12.464Z,97040.28
2023-02-25T08:28:41.349Z,97098.25
2023-02-25T08:31:14.597Z,97098.75
2023-02-25T08:33:49.538Z,97089.19
2023-02-25T08:36:20.577Z,97091.38
2023-02-25T08:38:47.641Z,97096.13
2023-02-25T08:41:14.572Z,97088.94
2023-02-25T08:43:44.437Z,97070.53
2023-02-25T08:46:14.076Z,97062.59
2023-02-25T08:48:43.535Z,97073.19
2023-02-25T08:51:15.146Z,97083.22
2023-02-25T08:53:44.759Z,97082.22
2023-02-25T08:56:16.368Z,97082.06
2023-02-25T08:58:43.861Z,97076.13
2023-02-25T09:01:14.385Z,97083.06
2023-02-25T09:04:18.944Z,97061.66
2023-02-25T09:06:49.039Z,97073.69
2023-02-25T09:09:17.096Z,97081.59
2023-02-25T09:11:44.986Z,97072.72
2023-02-25T09:14:15.604Z,97072.53
2023-02-25T09:16:42.203Z,97070.91
2023-02-25T09:19:10.865Z,97070.72
2023-02-25T09:21:37.489Z,97079.75
2023-02-25T09:24:04.399Z,97072.03
2023-02-25T09:26:30.914Z,97065.09
2023-02-25T09:29:01.138Z,97066.41
2023-02-25T09:31:28.085Z,97053.94
2023-02-25T09:33:54.811Z,97052.59
2023-02-25T09:36:22.417Z,97062.75
2023-02-25T09:38:50.597Z,97060.06
2023-02-25T09:41:29.311Z,97065.47
2023-02-25T09:44:03.560Z,97058.38
2023-02-25T09:46:46.392Z,97057.19
2023-02-25T09:49:20.198Z,97061.63
2023-02-25T09:51:52.905Z,97065.28
2023-02-25T09:54:51.746Z,97049.25
2023-02-25T09:57:22.480Z,97055.28
2023-02-25T09:59:53.652Z,97064.09
2023-02-25T10:02:44.222Z,97059.41
2023-02-25T10:05:39.174Z,97046.44
2023-02-25T10:08:20.906Z,97056.03
2023-02-25T10:10:59.424Z,97060.78
2023-02-25T10:13:54.784Z,97058.34
2023-02-25T10:16:49.105Z,97062.91
2023-02-25T10:19:30.744Z,97067.31
2023-02-25T10:22:17.362Z,97054.97
2023-02-25T10:24:48.589Z,97061.56
2023-02-25T10:27:24.500Z,97053.91
2023-02-25T10:29:56.963Z,97059.50
2023-02-25T10:32:27.151Z,97057.25
2023-02-25T10:34:57.987Z,97054.38
2023-02-25T10:37:36.019Z,97064.31
2023-02-25T10:40:11.293Z,97060.50
2023-02-25T10:42:38.446Z,97058.69
2023-02-25T10:45:14.490Z,97064.63
2023-02-25T10:47:49.372Z,97066.25
2023-02-25T10:50:27.734Z,97068.25
2023-02-25T10:53:05.197Z,97025.56
2023-02-25T10:55:43.785Z,97068.59
2023-02-25T10:58:34.888Z,97054.72
2023-02-25T11:01:12.571Z,97057.91
2023-02-25T11:03:48.198Z,97054.16
2023-02-25T11:06:24.837Z,97053.69
2023-02-25T11:08:54.699Z,97053.69
2023-02-25T11:11:24.750Z,97048.00
2023-02-25T11:14:07.002Z,97041.78
2023-02-25T11:16:36.473Z,97034.63
2023-02-25T11:19:31.654Z,97031.03
2023-02-25T11:22:06.153Z,97028.94
2023-02-25T11:24:36.158Z,97023.63
2023-02-25T11:27:04.614Z,97023.06
2023-02-25T11:29:42.628Z,97008.50
2023-02-25T11:32:16.619Z,97015.72
2023-02-25T11:34:53.743Z,97024.34
2023-02-25T11:37:45.308Z,97021.00
2023-02-25T11:40:44.169Z,97016.78
2023-02-25T11:43:34.115Z,97012.69
2023-02-25T11:46:08.955Z,97013.97
2023-02-25T11:48:49.942Z,97014.59
2023-02-25T11:51:22.429Z,97006.47
2023-02-25T11:54:21.371Z,97007.44
2023-02-25T11:57:26.006Z,97007.91
2023-02-25T12:00:48.348Z,97006.25
2023-02-25T12:03:39.102Z,96997.19
2023-02-25T12:06:24.087Z,96995.31
2023-02-25T12:09:17.801Z,96990.69
2023-02-25T12:12:06.333Z,96986.63
2023-02-25T12:15:00.897Z,96991.47
2023-02-25T12:18:01.976Z,96981.44
2023-02-25T12:21:07.256Z,96987.19
2023-02-25T12:23:49.868Z,96966.59
2023-02-25T12:26:43.990Z,96974.94
2023-02-25T12:29:23.159Z,96973.31
2023-02-25T12:32:24.845Z,96970.69
2023-02-25T12:35:12.696Z,96946.13
2023-02-25T12:38:00.586Z,96960.22
2023-02-25T12:40:49.012Z,96952.31
2023-02-25T12:43:40.740Z,96954.59
2023-02-25T12:46:16.519Z,96946.44
2023-02-25T12:49:34.178Z,96948.09
2023-02-25T12:52:23.972Z,96940.78
2023-02-25T12:55:02.316Z,96941.38
2023-02-25T12:57:50.183Z,96933.44
2023-02-25T13:00:28.898Z,96936.91
2023-02-25T13:03:33.195Z,96938.06
2023-02-25T13:06:33.595Z,96935.78
2023-02-25T13:09:26.616Z,96928.56
2023-02-25T13:12:11.559Z,96933.66
2023-02-25T13:15:07.482Z,96916.56
2023-02-25T13:17:51.243Z,96919.16
2023-02-25T13:20:35.401Z,96921.28
2023-02-25T13:23:31.032Z,96915.34
2023-02-25T13:26:09.530Z,96912.84
2023-02-25T13:28:35.955Z,96910.00
2023-02-25T13:31:16.610Z,96914.28
2023-02-25T13:34:03.558Z,96894.81
2023-02-25T13:36:52.801Z,96888.00
2023-02-25T13:39:47.721Z,96905.09
2023-02-25T13:42:51.941Z,96898.13
2023-02-25T13:45:38.578Z,96896.03
2023-02-25T13:48:44.284Z,96902.66
2023-02-25T13:51:16.002Z,96903.44
2023-02-25T13:54:23.171Z,96897.34
2023-02-25T13:57:11.638Z,96895.31
2023-02-25T13:59:47.230Z,96899.50
2023-02-25T14:02:18.206Z,96891.72
2023-02-25T14:04:53.198Z,96901.56
2023-02-25T14:07:32.218Z,96897.81
2023-02-25T14:10:18.459Z,96890.13
2023-02-25T14:13:21.960Z,96897.78
2023-02-25T14:16:22.853Z,96902.16
2023-02-25T14:19:10.228Z,96896.72
2023-02-25T14:21:58.234Z,96906.03
2023-02-25T14:25:02.836Z,96902.56
2023-02-25T14:28:07.195Z,96905.56
2023-02-25T14:30:54.814Z,96906.84
2023-02-25T14:33:52.320Z,96901.56
2023-02-25T14:36:41.738Z,96896.38
2023-02-25T14:39:21.667Z,96904.53
2023-02-25T14:42:11.532Z,96896.72
2023-02-25T14:44:41.199Z,96901.91
2023-02-25T14:47:18.067Z,96885.59
2023-02-25T14:50:07.120Z,96903.19
2023-02-25T14:52:59.465Z,96903.91
2023-02-25T14:55:55.765Z,96902.19
2023-02-25T14:58:28.113Z,96908.22
2023-02-25T15:01:12.944Z,96911.44
2023-02-25T15:03:48.437Z,96908.97
2023-02-25T15:06:30.077Z,96915.03
2023-02-25T15:09:22.553Z,96903.28
2023-02-25T15:12:20.385Z,96924.16
2023-02-25T15:15:09.901Z,96905.16
2023-02-25T15:17:58.287Z,96915.63
2023-02-25T15:20:39.214Z,96929.53
2023-02-25T15:23:13.685Z,96934.44
2023-02-25T15:25:50.335Z,96938.66
2023-02-25T15:28:31.618Z,96943.69
2023-02-25T15:31:01.045Z,96939.28
2023-02-25T15:33:33.982Z,96947.97
2023-02-25T15:36:18.961Z,96916.47
2023-02-25T15:38:52.252Z,96958.00
2023-02-25T15:41:27.758Z,96956.34
2023-02-25T15:43:59.160Z,96954.09
2023-02-25T15:46:35.077Z,96971.72
2023-02-25T15:49:07.811Z,96967.44
2023-02-25T15:51:52.748Z,96959.53
2023-02-25T15:54:31.174Z,96971.72
2023-02-25T15:57:00.046Z,96970.44
2023-02-25T16:00:01.049Z,96967.31
2023-02-25T16:02:30.388Z,96973.06
2023-02-25T16:05:19.409Z,96982.28
2023-02-25T16:07:49.900Z,96985.38
2023-02-25T16:10:22.569Z,96989.34
2023-02-25T16:12:52.797Z,96990.16
2023-02-25T16:15:25.608Z,96990.97
2023-02-25T16:17:56.142Z,96991.31
2023-02-25T16:20:48.529Z,96996.44
2023-02-25T16:23:19.481Z,96995.09
2023-02-25T16:26:18.676Z,96983.56
2023-02-25T16:29:02.790Z,97018.09
2023-02-25T16:31:44.064Z,97019.41
2023-02-25T16:34:22.486Z,97029.25
2023-02-25T16:37:21.696Z,97039.09
2023-02-25T16:39:51.921Z,97037.78
2023-02-25T16:42:21.290Z,97017.69
2023-02-25T16:44:58.828Z,97041.41
2023-02-25T16:47:29.369Z,97038.63
2023-02-25T16:49:58.235Z,97058.66
2023-02-25T16:52:36.134Z,97048.47
2023-02-25T16:55:10.340Z,97053.22
2023-02-25T16:57:38.648Z,97054.03
2023-02-25T17:00:24.220Z,97062.75
2023-02-25T17:03:00.515Z,97066.53
2023-02-25T17:05:34.020Z,97068.81
2023-02-25T17:08:02.587Z,97068.66
2023-02-25T17:10:33.485Z,97074.22
2023-02-25T17:13:02.840Z,97067.13
2023-02-25T17:15:32.495Z,97072.94
2023-02-25T17:18:12.371Z,97067.50
2023-02-25T17:20:40.008Z,97064.00
2023-02-25T17:23:10.322Z,97074.22
2023-02-25T17:25:41.415Z,97065.84
2023-02-25T17:28:16.025Z,97059.09
2023-02-25T17:30:48.400Z,97068.34
2023-02-25T17:33:26.587Z,97067.03
2023-02-25T17:36:03.149Z,97073.94
2023-02-25T17:38:30.111Z,97064.72
2023-02-25T17:40:57.059Z,97073.13
2023-02-25T17:43:33.006Z,97082.34
2023-02-25T17:46:03.086Z,97074.00
2023-02-25T17:48:32.502Z,97088.81
2023-02-25T17:51:08.412Z,97079.59
2023-02-25T17:53:47.075Z,97086.81
2023-02-25T17:56:23.342Z,97093.41
2023-02-25T17:58:54.157Z,97091.41
2023-02-25T18:01:32.022Z,97094.97
2023-02-25T18:04:05.209Z,97079.69
2023-02-25T18:06:41.102Z,97092.97
2023-02-25T18:09:28.669Z,97097.09
2023-02-25T18:12:14.696Z,97093.63
2023-02-25T18:14:45.880Z,97091.31
2023-02-25T18:17:28.529Z,97091.84
2023-02-25T18:20:01.114Z,97099.41
2023-02-25T18:22:39.161Z,97089.34
2023-02-25T18:25:27.880Z,97097.06
2023-02-25T18:27:58.342Z,97097.88
2023-02-25T18:30:56.138Z,97104.63
2023-02-25T18:33:34.627Z,97075.81
2023-02-25T18:36:01.818Z,97053.94
2023-02-25T18:38:30.935Z,97053.09
2023-02-25T18:40:58.269Z,97073.66
2023-02-25T18:46:41.993Z,97064.91
2023-02-25T18:49:08.833Z,97100.94
2023-02-25T18:51:35.920Z,97109.34
2023-02-25T18:54:02.757Z,97102.13
2023-02-25T18:56:29.673Z,97090.78
2023-02-25T18:58:57.629Z,97100.00
2023-02-25T19:01:28.700Z,97092.41
2023-02-25T19:04:01.552Z,97092.88
2023-02-25T19:06:29.247Z,97094.66
2023-02-25T19:08:56.813Z,97069.97
2023-02-25T19:11:30.878Z,97061.25
2023-02-25T19:13:57.838Z,97056.97
2023-02-25T19:18:22.860Z,97096.16
2023-02-25T19:20:32.565Z,97092.19
2023-02-25T19:27:10.071Z,97031.53
2023-02-25T19:29:36.578Z,97088.09
2023-02-25T19:32:03.175Z,97092.56
2023-02-25T19:34:29.782Z,97079.34
2023-02-25T19:36:59.887Z,97080.00
2023-02-25T19:39:29.283Z,97091.38
2023-02-25T19:42:00.356Z,97082.59
2023-02-25T19:44:47.920Z,97097.84
2023-02-25T19:47:15.873Z,97101.13
2023-02-25T19:49:42.651Z,97091.63
2023-02-25T19:52:09.158Z,97104.94
2023-02-25T19:54:35.627Z,97103.09
2023-02-25T19:57:02.068Z,97097.78
2023-02-25T19:59:31.299Z,97104.66
2023-02-25T20:02:01.585Z,97119.28
2023-02-25T20:04:31.489Z,97118.28
2023-02-25T20:07:00.830Z,97118.25
2023-02-25T20:09:30.636Z,97105.28
2023-02-25T20:11:59.773Z,97111.75
2023-02-25T20:14:31.282Z,97114.28
2023-02-25T20:17:00.809Z,97098.63
2023-02-25T20:19:32.892Z,97113.09
2023-02-25T20:25:24.220Z,97122.19
2023-02-25T20:27:50.752Z,97104.75
2023-02-25T20:30:18.026Z,97116.22
2023-02-25T20:32:45.313Z,97119.88
2023-02-25T20:35:18.364Z,97097.25
2023-02-25T20:38:00.217Z,97111.00
2023-02-25T20:40:28.154Z,97109.47
2023-02-25T20:42:54.859Z,97105.25
2023-02-25T20:45:21.641Z,97120.25
2023-02-25T20:47:48.293Z,97123.81
2023-02-25T20:50:15.874Z,97120.69
2023-02-25T20:52:42.468Z,97102.75
2023-02-25T20:55:09.528Z,97105.59
2023-02-25T20:57:36.055Z,97118.47
2023-02-25T21:00:02.623Z,97121.00
2023-02-25T21:02:29.666Z,97088.38
2023-02-25T21:04:58.589Z,97121.53
2023-02-25T21:07:25.072Z,97125.41
2023-02-25T21:09:51.544Z,97118.41
2023-02-25T21:12:18.052Z,97140.63
2023-02-25T21:14:44.484Z,97133.59
2023-02-25T21:17:13.536Z,97122.94
2023-02-25T21:19:40.536Z,97131.53
2023-02-25T21:22:08.002Z,97138.66
2023-02-25T21:24:36.178Z,97122.81
2023-02-25T21:27:11.569Z,97105.13
2023-02-25T21:29:38.626Z,97115.00
2023-02-25T21:32:05.434Z,97125.13
2023-02-25T21:34:31.996Z,97145.03
2023-02-25T21:37:01.328Z,97132.69
2023-02-25T21:39:29.950Z,97118.53
2023-02-25T21:41:56.621Z,97136.34
2023-02-25T21:44:23.157Z,97134.91
2023-02-25T21:46:49.679Z,97119.78
2023-02-25T21:49:16.203Z,97137.94
2023-02-25T21:51:42.796Z,97139.41
2023-02-25T21:54:09.669Z,97139.09
2023-02-25T21:56:36.263Z,97135.81
2023-02-25T21:59:05.719Z,97135.09
2023-02-25T22:01:43.921Z,97139.59
2023-02-25T22:04:11.408Z,97128.19
2023-02-25T22:06:38.468Z,97131.44
2023-02-25T22:09:06.795Z,97123.94
2023-02-25T22:11:36.074Z,97124.53
2023-02-25T22:14:05.700Z,97115.31
2023-02-25T22:16:32.581Z,97117.66
2023-02-25T22:19:03.307Z,97123.56
2023-02-25T22:21:35.463Z,97125.03
2023-02-25T22:24:06.147Z,97109.19
2023-02-25T22:26:34.875Z,97120.63
2023-02-25T22:29:09.216Z,97116.94
2023-02-25T22:31:36.551Z,97119.78
2023-02-25T22:34:04.098Z,97123.91
2023-02-25T22:36:31.485Z,97116.03
2023-02-25T22:38:57.972Z,97118.31
2023-02-25T22:41:29.528Z,97118.53
2023-02-25T22:43:58.467Z,97111.25
2023-02-25T22:46:29.205Z,97118.81
2023-02-25T22:48:56.199Z,97117.38
2023-02-25T22:51:28.818Z,97115.38
2023-02-25T22:53:56.395Z,97111.16
2023-02-25T22:56:23.570Z,97096.25
2023-02-25T22:58:50.678Z,97108.69
2023-02-25T23:01:19.402Z,97116.41
2023-02-25T23:03:47.045Z,97111.41
2023-02-25T23:06:15.671Z,97110.34
2023-02-25T23:08:42.675Z,97110.75
2023-02-25T23:11:16.418Z,97102.19
2023-02-25T23:13:48.177Z,97109.31
2023-02-25T23:16:34.252Z,97100.41
2023-02-25T23:19:05.783Z,97110.31
2023-02-25T23:21:38.653Z,97094.03
2023-02-25T23:24:07.505Z,97100.78
2023-02-25T23:26:38.696Z,97100.91
2023-02-25T23:29:10.237Z,97090.63
2023-02-25T23:31:42.356Z,97109.75
2023-02-25T23:34:12.286Z,97115.00
2023-02-25T23:36:40.887Z,97117.22
2023-02-25T23:39:09.014Z,97105.81
2023-02-25T23:41:40.036Z,97112.81
2023-02-25T23:44:11.614Z,97116.44
2023-02-25T23:46:38.210Z,97117.53
2023-02-25T23:49:08.880Z,97112.22
2023-02-25T23:51:37.606Z,97120.78
2023-02-25T23:54:09.489Z,97119.66
2023-02-25T23:56:39.216Z,97112.13
2023-02-25T23:59:07.903Z,97124.09
